Time;durP1;ratioP1;P1;durP2;ratioP2;P2;SDS_P1;SDS_P2;PMS_P1;PMS_P2;Temp;Humidity;BMP_temperature;BMP_pressure;BME280_temperature;BME280_humidity;BME280_pressure;Samples;Min_cycle;Max_cycle;Signal;HPM_P1;HPM_P2
2021/05/19 00:01:44;;;;;;;10.32;5.62;;;;;;;15.22;81.79;98648.62;1641532;87;21085;-64
2021/05/19 00:04:11;;;;;;;5.90;4.62;;;;;;;15.21;81.69;98656.07;1641328;87;21197;-64
2021/05/19 00:06:39;;;;;;;7.87;4.45;;;;;;;15.22;81.85;98664.63;1641481;86;21413;-64
2021/05/19 00:09:08;;;;;;;10.72;5.17;;;;;;;15.22;81.82;98659.11;1641475;87;21090;-64
2021/05/19 00:11:36;;;;;;;6.37;4.45;;;;;;;15.22;81.81;98663.25;1641617;87;21193;-64
2021/05/19 00:14:05;;;;;;;6.28;4.60;;;;;;;15.22;81.79;98665.18;1641424;87;21345;-64
2021/05/19 00:16:34;;;;;;;6.60;5.30;;;;;;;15.20;81.87;98665.45;1641424;87;21104;-64
2021/05/19 00:19:01;;;;;;;7.67;4.35;;;;;;;15.22;81.84;98662.42;1641398;87;22047;-64
2021/05/19 00:21:28;;;;;;;5.75;4.30;;;;;;;15.22;81.82;98661.04;1641399;87;21063;-64
2021/05/19 00:23:56;;;;;;;5.12;4.22;;;;;;;15.22;81.83;98662.42;1641378;87;21103;-64
2021/05/19 00:26:25;;;;;;;5.62;4.20;;;;;;;15.20;81.82;98661.86;1641400;87;21277;-64
2021/05/19 00:28:57;;;;;;;7.05;4.22;;;;;;;15.19;81.89;98657.44;1641313;87;21066;-64
2021/05/19 00:31:27;;;;;;;7.80;4.33;;;;;;;15.19;81.85;98657.44;1641448;87;21063;-65
2021/05/19 00:33:54;;;;;;;7.22;4.10;;;;;;;15.19;81.89;98650.55;1641475;87;21078;-64
2021/05/19 00:36:22;;;;;;;7.67;4.08;;;;;;;15.19;81.86;98651.92;1641555;87;21082;-64
2021/05/19 00:38:50;;;;;;;5.62;4.20;;;;;;;15.18;81.85;98654.41;1641309;87;21062;-64
2021/05/19 00:41:17;;;;;;;7.62;4.65;;;;;;;15.17;81.99;98652.20;1641436;87;21082;-63
2021/05/19 00:43:44;;;;;;;13.38;4.47;;;;;;;15.17;82.02;98650.81;1641557;86;21070;-65
2021/05/19 00:46:12;;;;;;;5.40;4.53;;;;;;;15.19;82.06;98651.92;1641556;87;21312;-65
2021/05/19 00:48:40;;;;;;;5.95;4.60;;;;;;;15.19;82.00;98645.86;1641380;87;21193;-65
2021/05/19 00:51:07;;;;;;;6.50;4.42;;;;;;;15.21;82.07;98645.04;1641448;87;21070;-64
2021/05/19 00:53:36;;;;;;;5.97;4.80;;;;;;;15.23;82.00;98642.84;1623720;87;21368;-64
2021/05/19 00:56:05;;;;;;;8.33;4.97;;;;;;;15.21;81.83;98640.90;1641417;87;21027;-64
2021/05/19 00:58:33;;;;;;;8.93;5.25;;;;;;;15.21;82.04;98642.83;1641428;87;21783;-65
2021/05/19 01:01:01;;;;;;;6.53;4.55;;;;;;;15.20;82.06;98639.79;1641352;87;21071;-65
2021/05/19 01:03:35;;;;;;;7.05;4.95;;;;;;;15.21;82.01;98643.66;1641313;87;21429;-66
2021/05/19 01:06:08;;;;;;;6.17;4.53;;;;;;;15.17;82.07;98645.30;1623705;87;21070;-64
2021/05/19 01:11:25;;;;;;;10.10;4.90;;;;;;;15.18;82.47;98651.09;1641415;87;21269;-64
2021/05/19 01:13:52;;;;;;;8.18;5.58;;;;;;;15.19;82.46;98649.17;1641374;87;21295;-64
2021/05/19 01:16:20;;;;;;;7.78;5.03;;;;;;;15.20;82.47;98655.80;1641520;87;21051;-64
2021/05/19 01:18:49;;;;;;;8.33;4.90;;;;;;;15.21;82.39;98655.24;1641672;87;21031;-64
2021/05/19 01:21:17;;;;;;;7.03;4.58;;;;;;;15.20;82.24;98657.72;1624035;87;21311;-64
2021/05/19 01:23:44;;;;;;;5.92;4.85;;;;;;;15.19;82.29;98657.44;1641536;87;21126;-65
2021/05/19 01:26:13;;;;;;;6.28;4.90;;;;;;;15.19;82.25;98660.20;1641498;87;21866;-64
2021/05/19 01:28:42;;;;;;;8.13;5.00;;;;;;;15.17;82.26;98659.64;1641466;87;21213;-64
2021/05/19 01:31:12;;;;;;;6.30;4.17;;;;;;;15.15;82.31;98657.70;1641389;87;21815;-64
2021/05/19 01:33:41;;;;;;;7.08;4.60;;;;;;;15.16;82.23;98657.98;1641638;87;21782;-64
2021/05/19 01:36:08;;;;;;;7.97;4.75;;;;;;;15.14;82.21;98664.32;1641546;87;21102;-64
2021/05/19 01:38:37;;;;;;;7.83;5.00;;;;;;;15.13;82.26;98664.87;1641520;87;21304;-64
2021/05/19 01:41:05;;;;;;;8.25;4.90;;;;;;;15.12;82.35;98664.59;1624025;87;21074;-64
2021/05/19 01:43:35;;;;;;;7.72;5.20;;;;;;;15.13;82.39;98662.66;1641195;87;21725;-64
2021/05/19 01:46:10;;;;;;;6.92;4.67;;;;;;;15.14;82.31;98662.94;1641513;87;21106;-63
2021/05/19 01:48:38;;;;;;;11.33;5.25;;;;;;;15.11;82.31;98655.20;1641427;87;21189;-64
2021/05/19 01:51:06;;;;;;;7.50;5.25;;;;;;;15.09;82.38;98657.41;1641509;87;21066;-65
2021/05/19 01:53:34;;;;;;;8.35;5.53;;;;;;;15.09;82.53;98657.41;1641570;87;21039;-64
2021/05/19 01:56:02;;;;;;;10.28;5.97;;;;;;;15.09;82.63;98654.64;1641496;87;21054;-64
2021/05/19 01:58:32;;;;;;;9.40;6.05;;;;;;;15.11;82.86;98654.66;1641110;87;21083;-64
2021/05/19 02:01:05;;;;;;;8.48;5.40;;;;;;;15.16;82.81;98663.50;1641334;87;21794;-65
2021/05/19 02:03:33;;;;;;;9.43;5.40;;;;;;;15.14;82.65;98669.84;1624187;87;21071;-64
2021/05/19 02:06:11;;;;;;;7.35;5.92;;;;;;;15.13;82.66;98665.42;1640655;86;21078;-64
2021/05/19 02:08:40;;;;;;;7.62;6.00;;;;;;;15.12;82.80;98670.66;1641553;87;21055;-64
2021/05/19 02:11:10;;;;;;;8.45;6.50;;;;;;;15.11;82.89;98671.20;1641308;87;21067;-64
2021/05/19 02:13:39;;;;;;;10.88;6.22;;;;;;;15.14;83.04;98667.08;1641472;87;21105;-65
2021/05/19 02:16:10;;;;;;;12.85;7.50;;;;;;;15.13;82.99;98669.01;1645076;87;21794;-64
2021/05/19 02:18:42;;;;;;;10.85;6.37;;;;;;;15.14;83.08;98671.22;1626073;87;21140;-64
2021/05/19 02:21:10;;;;;;;9.45;7.40;;;;;;;15.17;83.15;98672.89;1626036;87;21293;-64
2021/05/19 02:23:39;;;;;;;11.00;8.25;;;;;;;15.19;83.12;98676.75;1645315;87;21349;-64
2021/05/19 02:26:07;;;;;;;9.65;7.50;;;;;;;15.20;83.13;98685.31;1645611;87;21078;-65
2021/05/19 02:28:35;;;;;;;12.55;8.23;;;;;;;15.22;83.23;98685.87;1645886;87;21117;-64
2021/05/19 02:31:03;;;;;;;12.60;7.70;;;;;;;15.23;83.14;98681.46;1645764;87;21281;-64
2021/05/19 02:33:31;;;;;;;9.78;7.22;;;;;;;15.25;82.97;98681.74;1626229;87;21107;-64
2021/05/19 02:35:59;;;;;;;10.95;7.00;;;;;;;15.25;83.01;98688.09;1645666;87;21099;-65
2021/05/19 02:38:27;;;;;;;11.40;8.25;;;;;;;15.25;83.01;98683.95;1645724;87;21092;-65
2021/05/19 02:40:56;;;;;;;12.33;9.63;;;;;;;15.24;83.07;98689.19;1645646;87;21467;-65
2021/05/19 02:43:24;;;;;;;11.30;8.30;;;;;;;15.23;83.28;98680.63;1645716;85;21338;-64
2021/05/19 02:45:52;;;;;;;12.07;8.60;;;;;;;15.25;83.23;98682.57;1645758;87;21023;-64
2021/05/19 02:48:20;;;;;;;15.18;8.73;;;;;;;15.25;83.13;98681.19;1645679;87;21060;-64
2021/05/19 02:50:47;;;;;;;14.63;8.95;;;;;;;15.23;83.18;98679.25;1645655;85;21095;-64
2021/05/19 02:53:14;;;;;;;12.45;9.15;;;;;;;15.25;83.25;98680.36;1645559;87;21034;-64
2021/05/19 02:55:42;;;;;;;13.75;9.98;;;;;;;15.26;83.31;98686.98;1645587;87;21302;-64
2021/05/19 02:58:09;;;;;;;12.33;9.00;;;;;;;15.29;83.33;98687.83;1645599;87;21035;-64
2021/05/19 03:00:37;;;;;;;12.35;9.30;;;;;;;15.29;83.25;98678.72;1645622;87;21318;-64
2021/05/19 03:03:05;;;;;;;14.13;9.05;;;;;;;15.31;83.29;98684.80;1645660;85;21258;-64
2021/05/19 03:05:33;;;;;;;13.93;9.25;;;;;;;15.34;83.37;98694.75;1645582;87;21325;-64
2021/05/19 03:08:00;;;;;;;11.75;8.88;;;;;;;15.37;83.33;98688.69;1645554;85;21118;-64
2021/05/19 03:10:28;;;;;;;13.85;9.60;;;;;;;15.40;83.21;98692.28;1645645;87;21303;-64
2021/05/19 03:12:56;;;;;;;13.20;9.30;;;;;;;15.41;83.05;98689.80;1645721;87;21078;-64
2021/05/19 03:15:23;;;;;;;13.18;8.88;;;;;;;15.42;83.08;98692.02;1643697;87;21075;-64
2021/05/19 03:17:52;;;;;;;15.58;9.83;;;;;;;15.43;83.19;98697.26;1641341;87;21083;-65
2021/05/19 03:20:19;;;;;;;13.70;9.93;;;;;;;15.44;83.22;98694.78;1641336;87;21305;-64
2021/05/19 03:22:47;;;;;;;13.70;9.93;;;;;;;15.47;83.26;98699.76;1641339;87;21352;-64
2021/05/19 03:25:14;;;;;;;14.78;10.53;;;;;;;15.47;83.28;98699.76;1641342;87;21333;-65
2021/05/19 03:27:42;;;;;;;14.43;10.18;;;;;;;15.48;83.25;98706.11;1641367;87;21320;-65
2021/05/19 03:30:13;;;;;;;15.35;10.35;;;;;;;15.45;83.28;98700.58;1641357;87;21378;-63
2021/05/19 03:32:40;;;;;;;16.02;10.08;;;;;;;15.48;83.41;98699.20;1641450;87;21066;-64
2021/05/19 03:35:10;;;;;;;15.93;11.30;;;;;;;15.52;83.38;98701.70;1641297;87;21181;-64
2021/05/19 03:37:38;;;;;;;19.65;12.68;;;;;;;15.55;83.16;98701.99;1641430;87;21362;-65
2021/05/19 03:40:07;;;;;;;19.87;14.07;;;;;;;15.55;83.06;98695.64;1641362;87;21070;-65
2021/05/19 03:42:35;;;;;;;22.07;13.98;;;;;;;15.58;83.07;98702.58;1641270;87;21334;-64
2021/05/19 03:45:06;;;;;;;22.15;13.88;;;;;;;15.59;82.96;98711.97;1641369;87;21297;-64
2021/05/19 03:47:33;;;;;;;20.97;13.78;;;;;;;15.62;82.81;98714.77;1641435;87;21237;-65
2021/05/19 03:50:03;;;;;;;22.02;14.23;;;;;;;15.64;82.57;98717.53;1641293;87;21972;-65
2021/05/19 03:52:31;;;;;;;27.20;17.23;;;;;;;15.62;82.43;98714.22;1641366;87;21443;-64
2021/05/19 03:55:01;;;;;;;27.60;17.30;;;;;;;15.58;82.34;98715.83;1641235;87;21062;-64
2021/05/19 03:57:28;;;;;;;25.52;16.35;;;;;;;15.55;82.45;98717.17;1641333;87;21828;-64
2021/05/19 03:59:56;;;;;;;21.57;15.45;;;;;;;15.53;82.54;98719.92;1641364;87;21301;-64
2021/05/19 04:02:23;;;;;;;23.62;16.40;;;;;;;15.53;82.55;98716.61;1641398;87;21293;-65
2021/05/19 04:04:51;;;;;;;26.33;16.05;;;;;;;15.52;82.59;98721.02;1641402;87;21102;-65
2021/05/19 04:07:19;;;;;;;24.80;16.62;;;;;;;15.50;82.77;98720.47;1641278;86;21149;-65
2021/05/19 04:09:46;;;;;;;24.77;17.45;;;;;;;15.50;82.79;98717.70;1641339;86;21264;-65
2021/05/19 04:12:14;;;;;;;26.95;18.17;;;;;;;15.49;82.88;98714.12;1641239;87;21801;-64
2021/05/19 04:14:41;;;;;;;25.05;17.05;;;;;;;15.51;82.91;98716.05;1641194;87;21051;-64
2021/05/19 04:17:08;;;;;;;22.35;14.98;;;;;;;15.54;82.87;98710.55;1645259;87;21192;-65
2021/05/19 04:19:36;;;;;;;24.18;15.80;;;;;;;15.55;82.74;98708.89;1645382;87;21086;-64
2021/05/19 04:22:04;;;;;;;24.07;15.90;;;;;;;15.51;82.68;98710.53;1645526;87;21168;-65
2021/05/19 04:24:31;;;;;;;19.82;14.80;;;;;;;15.49;82.90;98716.05;1645479;87;21333;-65
2021/05/19 04:27:00;;;;;;;27.65;18.92;;;;;;;15.49;83.03;98714.66;1645489;87;21083;-64
2021/05/19 04:29:28;;;;;;;24.72;16.50;;;;;;;15.47;83.07;98720.45;1645423;87;21404;-64
2021/05/19 04:31:55;;;;;;;22.93;15.38;;;;;;;15.43;83.21;98713.82;1645451;87;21324;-64
2021/05/19 04:34:22;;;;;;;24.20;15.80;;;;;;;15.42;83.42;98719.06;1645461;87;21237;-64
2021/05/19 04:36:50;;;;;;;26.42;16.07;;;;;;;15.41;83.58;98714.64;1645480;87;21388;-64
2021/05/19 04:39:17;;;;;;;24.75;17.35;;;;;;;15.42;83.72;98712.16;1645439;87;21058;-64
2021/05/19 04:41:45;;;;;;;22.62;16.15;;;;;;;15.45;83.98;98710.79;1645637;87;21102;-64
2021/05/19 04:44:15;;;;;;;23.32;15.85;;;;;;;15.51;84.26;98712.47;1645241;87;21083;-65
2021/05/19 04:46:43;;;;;;;24.40;17.85;;;;;;;15.60;84.24;98710.04;1645464;87;21319;-64
2021/05/19 04:49:10;;;;;;;29.50;20.00;;;;;;;15.68;84.10;98708.16;1645434;87;21071;-64
2021/05/19 04:51:38;;;;;;;25.52;17.87;;;;;;;15.77;84.35;98713.42;1645403;87;21060;-64
2021/05/19 04:54:07;;;;;;;23.35;16.32;;;;;;;15.90;84.33;98710.14;1645467;87;21062;-64
2021/05/19 04:56:35;;;;;;;21.68;15.55;;;;;;;16.00;84.08;98708.77;1645630;87;21173;-65
2021/05/19 04:59:04;;;;;;;22.15;15.68;;;;;;;16.08;83.77;98709.61;1645457;87;21063;-66
2021/05/19 05:01:32;;;;;;;18.73;14.83;;;;;;;16.15;83.49;98712.09;1645063;87;21843;-64
2021/05/19 05:04:00;;;;;;;18.02;13.68;;;;;;;16.20;83.32;98712.10;1645633;87;21118;-65
2021/05/19 05:06:28;;;;;;;18.50;13.10;;;;;;;16.27;82.94;98717.38;1645489;85;21075;-64
2021/05/19 05:08:56;;;;;;;18.55;12.75;;;;;;;16.32;82.31;98711.86;1645560;87;21090;-64
2021/05/19 05:11:23;;;;;;;21.10;14.90;;;;;;;16.36;82.10;98717.11;1645410;87;21075;-65
2021/05/19 05:13:51;;;;;;;25.05;15.23;;;;;;;16.40;81.81;98715.45;1645399;87;21706;-64
2021/05/19 05:16:18;;;;;;;23.90;16.37;;;;;;;16.43;81.32;98710.75;1645469;87;21378;-65
2021/05/19 05:18:46;;;;;;;26.10;17.70;;;;;;;16.47;80.95;98709.09;1645852;87;21829;-65
2021/05/19 05:21:14;;;;;;;25.27;16.80;;;;;;;16.48;80.27;98709.36;1645589;87;21302;-64
2021/05/19 05:23:41;;;;;;;23.07;16.15;;;;;;;16.52;79.94;98712.40;1645365;87;21845;-65
2021/05/19 05:26:09;;;;;;;21.75;15.50;;;;;;;16.53;79.43;98716.27;1645329;86;21106;-65
2021/05/19 05:28:36;;;;;;;28.05;18.20;;;;;;;16.50;79.21;98715.45;1645388;87;21264;-65
2021/05/19 05:31:05;;;;;;;24.92;17.37;;;;;;;16.51;79.46;98724.02;1645497;87;21058;-65
2021/05/19 05:33:32;;;;;;;28.52;19.32;;;;;;;16.53;79.54;98718.20;1645415;87;21332;-64
2021/05/19 05:36:01;;;;;;;28.85;20.17;;;;;;;16.54;79.23;98724.84;1645468;87;21202;-65
2021/05/19 05:38:28;;;;;;;26.00;17.30;;;;;;;16.56;79.38;98721.25;1645481;87;21173;-64
2021/05/19 05:40:56;;;;;;;25.92;17.57;;;;;;;16.61;78.60;98719.86;1645596;87;21048;-65
2021/05/19 05:43:23;;;;;;;24.92;16.60;;;;;;;16.60;77.98;98717.38;1645463;87;21105;-64
2021/05/19 05:45:51;;;;;;;22.50;16.90;;;;;;;16.62;77.79;98727.59;1644823;87;21058;-66
2021/05/19 05:48:19;;;;;;;27.98;19.40;;;;;;;16.60;77.44;98725.11;1645535;87;21205;-64
2021/05/19 05:50:46;;;;;;;22.98;15.98;;;;;;;16.59;77.75;98724.84;1645531;87;21102;-65
2021/05/19 05:53:14;;;;;;;24.77;15.95;;;;;;;16.60;77.71;98723.73;1646990;85;21360;-69
2021/05/19 05:55:41;;;;;;;21.80;14.75;;;;;;;16.63;77.92;98729.26;1645327;87;21086;-68
2021/05/19 05:58:09;;;;;;;23.57;16.55;;;;;;;16.66;77.88;98736.48;1645330;87;21234;-69
2021/05/19 06:00:37;;;;;;;25.05;17.12;;;;;;;16.69;78.11;98734.54;1645194;87;21258;-69
2021/05/19 06:03:06;;;;;;;27.40;17.00;;;;;;;16.73;78.07;98732.88;1645153;87;21795;-68
2021/05/19 06:05:35;;;;;;;24.75;16.80;;;;;;;16.77;77.89;98729.83;1645216;87;21330;-69
2021/05/19 06:08:05;;;;;;;23.67;15.98;;;;;;;16.84;78.07;98732.86;1645167;85;21920;-69
2021/05/19 06:10:33;;;;;;;21.82;15.20;;;;;;;16.88;77.56;98737.55;1645059;85;21803;-69
2021/05/19 06:13:01;;;;;;;18.42;13.55;;;;;;;16.96;77.19;98733.42;1645328;87;21262;-68
2021/05/19 06:15:28;;;;;;;22.25;14.15;;;;;;;16.99;76.30;98731.47;1644689;85;21089;-68
2021/05/19 06:17:57;;;;;;;24.82;15.58;;;;;;;17.01;75.89;98737.00;1640887;86;21697;-68
2021/05/19 06:20:24;;;;;;;20.37;13.53;;;;;;;17.08;75.92;98736.15;1640578;87;21091;-68
2021/05/19 06:22:52;;;;;;;18.62;12.37;;;;;;;17.16;75.67;98738.89;1640741;87;21235;-68
2021/05/19 06:25:20;;;;;;;20.55;15.35;;;;;;;17.20;75.71;98735.01;1640229;86;21094;-69
2021/05/19 06:27:48;;;;;;;19.98;14.35;;;;;;;17.27;75.47;98743.28;1640681;87;21341;-69
2021/05/19 06:30:16;;;;;;;19.80;13.75;;;;;;;17.31;75.23;98744.94;1640798;87;21107;-69
2021/05/19 06:32:44;;;;;;;15.98;12.18;;;;;;;17.31;74.40;98743.55;1640854;87;22124;-71
2021/05/19 06:35:11;;;;;;;17.37;14.00;;;;;;;17.38;73.88;98746.30;1640922;86;21797;-70
2021/05/19 06:37:39;;;;;;;21.57;14.60;;;;;;;17.44;73.52;98752.64;1643069;87;21784;-68
2021/05/19 06:40:08;;;;;;;20.30;15.48;;;;;;;17.53;73.21;98757.86;1640660;87;21126;-69
2021/05/19 06:42:35;;;;;;;14.98;10.78;;;;;;;17.63;72.89;98761.17;1640783;87;21724;-69
2021/05/19 06:45:04;;;;;;;11.88;9.53;;;;;;;17.73;72.15;98757.00;1640477;86;21220;-69
2021/05/19 06:47:32;;;;;;;15.90;11.45;;;;;;;17.73;70.54;98763.93;1640900;86;21095;-69
2021/05/19 06:50:00;;;;;;;15.70;11.70;;;;;;;17.73;71.01;98768.91;1640840;87;21086;-69
2021/05/19 06:52:29;;;;;;;17.73;12.47;;;;;;;17.74;71.19;98771.12;1640497;86;21200;-70
2021/05/19 06:54:57;;;;;;;17.40;10.80;;;;;;;17.73;71.02;98770.85;1640556;87;21246;-68
2021/05/19 06:57:25;;;;;;;13.30;10.38;;;;;;;17.73;70.49;98770.85;1640298;85;21078;-68
2021/05/19 06:59:52;;;;;;;17.30;10.60;;;;;;;17.75;70.44;98781.09;1640605;86;21168;-68
2021/05/19 07:02:20;;;;;;;15.90;11.63;;;;;;;17.76;69.63;98780.53;1640365;87;21825;-70
2021/05/19 07:04:49;;;;;;;17.20;12.33;;;;;;;17.75;69.58;98782.48;1640054;87;21678;-70
2021/05/19 07:07:17;;;;;;;16.25;11.68;;;;;;;17.75;70.33;98785.25;1639951;86;21946;-69
2021/05/19 07:09:45;;;;;;;16.87;10.25;;;;;;;17.79;70.52;98787.73;1647868;86;21884;-69
2021/05/19 07:12:13;;;;;;;14.33;10.08;;;;;;;17.83;70.27;98788.81;1665001;86;21198;-69
2021/05/19 07:14:50;;;;;;;13.53;9.83;;;;;;;17.85;69.93;98790.74;1652660;85;21169;-70
2021/05/19 07:17:17;;;;;;;12.78;10.23;;;;;;;17.83;68.85;98791.58;1647255;85;21141;-69
2021/05/19 07:19:45;;;;;;;16.42;9.45;;;;;;;17.77;69.05;98783.02;1640751;85;21080;-68
2021/05/19 07:22:13;;;;;;;11.63;8.15;;;;;;;17.78;69.23;98788.84;1641232;86;21252;-68
2021/05/19 07:24:40;;;;;;;8.80;7.60;;;;;;;17.79;69.14;98786.34;1641252;86;21096;-69
2021/05/19 07:27:08;;;;;;;9.50;7.78;;;;;;;17.81;68.82;98795.20;1641084;86;21157;-69
2021/05/19 07:29:35;;;;;;;10.55;7.62;;;;;;;17.84;68.89;98782.16;1640993;87;21084;-68
2021/05/19 07:32:05;;;;;;;9.13;7.70;;;;;;;17.89;68.76;98783.52;1640939;86;21432;-69
2021/05/19 07:34:32;;;;;;;9.33;6.50;;;;;;;17.95;68.91;98786.53;1640924;86;21200;-68
2021/05/19 07:37:00;;;;;;;8.33;6.08;;;;;;;18.04;68.92;98787.59;1641227;86;21089;-68
2021/05/19 07:39:30;;;;;;;9.03;7.50;;;;;;;18.15;68.44;98785.59;1641010;87;21102;-68
2021/05/19 07:41:58;;;;;;;8.00;7.20;;;;;;;18.25;68.31;98780.00;1640926;86;21184;-69
2021/05/19 07:44:25;;;;;;;7.55;5.92;;;;;;;18.36;67.44;98785.75;1641212;86;21753;-68
2021/05/19 07:46:54;;;;;;;8.20;6.25;;;;;;;18.37;66.17;98791.56;1641097;86;21085;-70
2021/05/19 07:49:21;;;;;;;8.80;5.50;;;;;;;18.32;66.08;98788.83;1642727;85;21323;-69
2021/05/19 07:51:48;;;;;;;;;;;;;;;18.36;66.68;98796.02;1639666;86;21120;-69
2021/05/19 07:54:23;;;;;;;7.00;5.10;;;;;;;18.44;66.50;98797.34;1634100;86;20718;-69
2021/05/19 07:56:53;;;;;;;4.90;3.75;;;;;;;18.54;66.29;98797.27;1664775;84;21259;-69
2021/05/19 07:59:15;;;;;;;5.20;4.10;;;;;;;18.63;64.73;98796.95;1666428;85;21254;-70
2021/05/19 08:04:08;;;;;;;;;;;;;;;18.63;64.67;98798.34;1673517;84;21818;-70
2021/05/19 08:06:35;;;;;;;5.60;2.98;;;;;;;18.61;64.28;98808.34;1656050;83;20519;-75
2021/05/19 08:09:04;;;;;;;8.70;3.37;;;;;;;18.59;64.09;98809.71;1647566;86;20963;-73
2021/05/19 08:11:31;;;;;;;6.97;2.87;;;;;;;18.54;64.14;98809.75;1688052;84;21439;-73
2021/05/19 08:13:57;;;;;;;4.97;2.55;;;;;;;18.52;64.01;98808.66;1664246;84;20989;-77
2021/05/19 08:16:24;;;;;;;9.85;3.47;;;;;;;18.51;63.97;98808.38;1697370;84;21004;-72
2021/05/19 08:18:52;;;;;;;6.10;2.67;;;;;;;18.50;64.18;98801.73;1668904;85;21014;-71
2021/05/19 08:21:20;;;;;;;3.92;2.83;;;;;;;18.53;64.32;98806.15;1677770;84;21000;-72
2021/05/19 08:23:48;;;;;;;6.40;2.62;;;;;;;18.56;64.02;98804.19;1676693;84;21034;-78
2021/05/19 08:26:15;;;;;;;3.30;2.30;;;;;;;18.61;64.11;98814.41;1652517;87;21468;-81
2021/05/19 08:28:43;;;;;;;3.10;2.00;;;;;;;18.64;63.31;98815.25;1655200;85;20992;-73
2021/05/19 08:31:11;;;;;;;6.37;1.82;;;;;;;18.67;63.14;98812.73;1659535;85;21412;-72
2021/05/19 08:33:41;;;;;;;3.35;1.95;;;;;;;18.75;62.46;98809.06;1667360;84;21024;-71
2021/05/19 08:36:10;;;;;;;3.47;2.22;;;;;;;18.80;62.36;98821.51;1648384;85;21009;-76
2021/05/19 08:38:39;;;;;;;3.70;2.10;;;;;;;18.84;62.42;98812.31;1657363;85;21408;-72
2021/05/19 08:41:07;;;;;;;5.92;2.20;;;;;;;18.91;62.25;98813.40;1644641;85;20994;-70
2021/05/19 08:43:35;;;;;;;6.17;2.52;;;;;;;18.96;61.92;98818.34;1634017;88;21045;-73
2021/05/19 08:46:26;;;;;;;2.92;1.82;;;;;;;19.00;61.76;98819.42;1653005;85;21004;-74
2021/05/19 08:48:54;;;;;;;3.95;2.40;;;;;;;19.06;61.59;98820.20;1675958;84;21020;-75
2021/05/19 08:51:17;;;;;;;4.87;2.20;;;;;;;19.13;61.23;98821.24;1676798;85;21091;-76
2021/05/19 08:53:45;;;;;;;3.40;2.02;;;;;;;19.21;61.05;98822.83;1659600;85;21442;-73
2021/05/19 08:56:13;;;;;;;4.37;1.72;;;;;;;19.30;60.34;98825.23;1660935;85;20984;-72
2021/05/19 08:58:42;;;;;;;4.85;1.55;;;;;;;19.40;59.87;98821.52;1659057;84;20958;-73
2021/05/19 09:01:11;;;;;;;4.35;1.50;;;;;;;19.51;59.31;98825.05;1661491;84;20961;-75
2021/05/19 09:03:42;;;;;;;3.87;1.30;;;;;;;19.64;58.50;98817.42;1659693;85;20964;-73
2021/05/19 09:06:10;;;;;;;5.90;1.40;;;;;;;19.74;57.49;98823.42;1677552;85;21000;-74
2021/05/19 09:12:08;;;;;;;2.55;1.30;;;;;;;19.92;55.50;98827.64;1826099;77;22604;-69
2021/05/19 09:14:46;;;;;;;2.30;1.32;;;;;;;19.94;54.65;98827.34;1722393;82;21162;-69
2021/05/19 09:17:35;;;;;;;2.70;1.42;;;;;;;19.97;54.39;98833.69;1706729;83;21273;-72
2021/05/19 09:20:10;;;;;;;3.40;1.80;;;;;;;19.97;54.89;98829.52;1731445;82;21154;-72
2021/05/19 09:22:41;;;;;;;3.55;1.82;;;;;;;19.95;55.47;98827.61;1727271;81;21193;-72
2021/05/19 09:25:24;;;;;;;2.45;1.62;;;;;;;19.92;55.59;98834.59;1751189;81;21169;-71
2021/05/19 09:27:58;;;;;;;3.08;1.50;;;;;;;19.90;55.75;98831.27;1748141;81;21170;-70
2021/05/19 09:30:44;;;;;;;1.95;1.50;;;;;;;19.94;55.27;98829.55;1751460;81;21146;-70
2021/05/19 09:33:22;;;;;;;2.65;1.20;;;;;;;19.95;54.89;98831.20;1762250;80;21406;-73
2021/05/19 09:36:15;;;;;;;6.28;1.50;;;;;;;19.99;54.93;98823.66;1751777;80;21186;-73
2021/05/19 09:38:46;;;;;;;2.50;1.37;;;;;;;20.05;55.07;98830.25;1725620;81;21199;-72
2021/05/19 09:41:28;;;;;;;2.95;1.22;;;;;;;20.17;54.59;98823.72;1751079;81;21145;-73
2021/05/19 09:43:57;;;;;;;1.82;1.20;;;;;;;20.31;54.27;98822.98;1728248;82;21144;-77
2021/05/19 09:49:22;;;;;;;3.50;1.70;;;;;;;20.63;54.64;98814.73;1734570;81;21189;-71
2021/05/19 09:51:53;;;;;;;1.87;1.25;;;;;;;20.91;54.38;98812.08;1722443;82;21694;-77
2021/05/19 09:54:34;;;;;;;2.45;1.35;;;;;;;21.23;53.54;98807.91;1733446;82;21158;-75
2021/05/19 09:57:05;;;;;;;1.22;1.10;;;;;;;21.41;52.41;98808.98;1738349;82;21365;-73
2021/05/19 09:59:33;;;;;;;3.55;1.42;;;;;;;21.50;51.81;98809.95;1747202;81;21205;-73
2021/05/19 10:02:01;;;;;;;1.87;0.90;;;;;;;21.59;50.79;98810.05;1743151;81;21162;-73
2021/05/19 10:04:34;;;;;;;1.70;0.80;;;;;;;21.62;49.36;98806.65;1735341;82;21226;-74
2021/05/19 10:06:59;;;;;;;1.47;0.90;;;;;;;21.57;48.93;98817.33;1728586;81;22013;-70
2021/05/19 10:09:28;;;;;;;3.40;1.20;;;;;;;21.62;48.92;98821.41;1704807;82;21949;-75
2021/05/19 10:11:57;;;;;;;1.85;0.70;;;;;;;21.74;46.40;98817.55;1693021;84;21666;-73
2021/05/19 10:14:25;;;;;;;1.62;1.00;;;;;;;21.86;45.49;98813.41;1682848;84;21390;-71
2021/05/19 10:17:05;;;;;;;2.27;0.80;;;;;;;21.87;45.61;98821.47;1668004;85;21333;-70
2021/05/19 10:19:45;;;;;;;2.35;1.20;;;;;;;21.90;45.25;98823.62;1674664;83;21170;-76
2021/05/19 10:22:14;;;;;;;4.20;1.20;;;;;;;21.83;45.27;98827.41;1716380;82;21948;-75
2021/05/19 10:25:01;;;;;;;3.10;0.90;;;;;;;21.76;45.57;98832.00;1726198;82;21164;-72
2021/05/19 10:27:52;;;;;;;1.32;0.80;;;;;;;21.71;45.17;98829.31;1716288;83;21298;-71
2021/05/19 10:30:54;;;;;;;2.25;1.62;;;;;;;21.60;45.64;98827.86;1714625;83;21969;-76
2021/05/19 10:33:44;;;;;;;3.65;1.37;;;;;;;21.50;46.83;98832.24;1716643;83;21223;-72
2021/05/19 10:36:30;;;;;;;1.82;1.10;;;;;;;21.47;46.98;98834.25;1714152;83;21199;-72
2021/05/19 10:39:15;;;;;;;1.20;1.00;;;;;;;21.56;47.30;98835.19;1779253;80;21349;-72
2021/05/19 10:41:48;;;;;;;2.33;0.70;;;;;;;21.68;46.61;98828.53;1777983;80;21952;-71
2021/05/19 10:44:20;;;;;;;4.72;1.00;;;;;;;21.72;45.96;98835.15;1724861;81;21858;-70
2021/05/19 10:47:05;;;;;;;2.15;0.88;;;;;;;21.66;45.73;98833.59;1736592;81;21901;-71
2021/05/19 10:49:58;;;;;;;3.85;1.00;;;;;;;21.63;46.07;98837.56;1701519;82;21887;-71
2021/05/19 10:58:01;;;;;;;2.83;1.05;;;;;;;21.40;47.72;98834.62;1638437;86;21905;-71
2021/05/19 11:00:29;;;;;;;2.55;1.00;;;;;;;21.31;48.37;98837.85;1639336;86;21811;-70
2021/05/19 11:03:06;;;;;;;3.72;1.65;;;;;;;21.26;48.51;98842.69;1641892;86;21166;-69
2021/05/19 11:05:40;;;;;;;2.83;1.40;;;;;;;21.13;48.81;98848.45;1646641;86;21438;-70
2021/05/19 11:08:14;;;;;;;2.58;1.40;;;;;;;21.02;49.14;98847.80;1653189;85;21167;-74
2021/05/19 11:10:50;;;;;;;3.17;1.40;;;;;;;20.92;49.17;98841.58;1682553;85;21158;-76
2021/05/19 11:13:17;;;;;;;3.10;1.57;;;;;;;20.85;49.22;98850.31;1655337;85;21174;-73
2021/05/19 11:21:02;;;;;;;3.62;1.67;;;;;;;20.63;50.15;98852.86;1710097;84;21814;-70
2021/05/19 11:23:30;;;;;;;3.15;1.45;;;;;;;20.56;50.40;98846.28;1709216;84;21948;-73
2021/05/19 11:26:15;;;;;;;2.60;1.40;;;;;;;20.52;50.63;98850.23;1713782;81;21221;-72
2021/05/19 11:28:43;;;;;;;3.50;1.12;;;;;;;20.47;50.89;98849.48;1709196;84;21901;-71
2021/05/19 11:31:14;;;;;;;2.70;1.25;;;;;;;20.42;50.93;98857.34;1711619;82;21198;-72
2021/05/19 11:33:57;;;;;;;2.50;1.30;;;;;;;20.39;51.09;98858.47;1709129;84;21293;-69
2021/05/19 11:36:35;;;;;;;2.35;1.20;;;;;;;20.36;51.35;98859.06;1708774;82;21286;-71
2021/05/19 11:39:39;;;;;;;2.90;1.45;;;;;;;20.30;51.70;98856.09;1708388;82;21166;-70
2021/05/19 11:42:36;;;;;;;5.40;2.30;;;;;;;20.25;52.21;98863.38;1705182;82;21905;-71
2021/05/19 11:45:12;;;;;;;3.58;2.30;;;;;;;20.18;53.56;98857.92;1708765;83;21161;-74
2021/05/19 11:47:40;;;;;;;3.20;2.40;;;;;;;20.05;54.95;98858.05;1711430;82;21325;-75
2021/05/19 11:50:24;;;;;;;5.35;2.45;;;;;;;20.01;55.80;98865.34;1711532;83;21171;-74
2021/05/19 11:53:10;;;;;;;4.72;2.67;;;;;;;19.92;56.46;98865.16;1711522;82;21163;-72
2021/05/19 11:55:45;;;;;;;7.00;2.90;;;;;;;19.87;57.15;98872.73;1711396;83;21165;-71
2021/05/19 11:58:29;;;;;;;3.02;2.72;;;;;;;19.77;57.63;98877.85;1711238;83;21208;-74
2021/05/19 12:01:05;;;;;;;3.45;2.75;;;;;;;19.71;58.36;98881.81;1710002;83;21157;-77
2021/05/19 12:03:31;;;;;;;3.20;2.77;;;;;;;19.57;59.14;98882.24;1710482;83;21204;-73